createdAt,value
2022-12-24T00:00:42.424Z,1000.79
2022-12-24T00:15:42.767Z,1000.82
2022-12-24T00:30:43.481Z,1000.86
2022-12-24T00:45:44.657Z,1000.92
2022-12-24T01:00:46.719Z,1000.98
2022-12-24T01:15:46.773Z,1001.13
2022-12-24T01:30:47.390Z,1001.26
2022-12-24T01:45:47.960Z,1001.42
2022-12-24T02:00:49.074Z,1001.55
2022-12-24T02:15:49.493Z,1001.67
2022-12-24T02:30:49.707Z,1001.86
2022-12-24T02:45:55.207Z,1002.08
2022-12-24T03:00:55.398Z,1002.25
2022-12-24T03:15:55.977Z,1002.24
2022-12-24T03:30:56.063Z,1002.44
2022-12-24T03:45:57.227Z,1002.53
2022-12-24T04:00:58.868Z,1002.76
2022-12-24T04:16:00.055Z,1002.78
2022-12-24T04:31:00.525Z,1003.03
2022-12-24T04:46:00.859Z,1003.28
2022-12-24T05:01:01.919Z,1003.26
2022-12-24T05:16:02.457Z,1003.27
2022-12-24T05:31:03.156Z,1003.37
2022-12-24T05:46:03.739Z,1003.60
2022-12-24T06:01:03.950Z,1003.70
2022-12-24T06:16:03.944Z,1003.88
2022-12-24T06:31:05.140Z,1004.03
2022-12-24T06:46:06.235Z,1004.17
2022-12-24T07:01:07.393Z,1004.42
2022-12-24T07:16:08.542Z,1004.72
2022-12-24T07:31:09.118Z,1004.84
2022-12-24T07:46:09.201Z,1005.07
2022-12-24T08:01:09.885Z,1005.24
2022-12-24T08:16:10.215Z,1005.31
2022-12-24T08:31:10.697Z,1005.40
2022-12-24T08:46:11.409Z,1005.60
2022-12-24T09:01:12.009Z,1005.74
2022-12-24T09:16:12.619Z,1005.96
2022-12-24T09:31:13.194Z,1006.24
2022-12-24T09:46:13.870Z,1006.29
2022-12-24T10:01:13.948Z,1006.56
2022-12-24T10:16:14.588Z,1006.75
2022-12-24T10:31:14.687Z,1007.03
2022-12-24T10:46:15.253Z,1007.08
2022-12-24T11:01:15.948Z,1007.24
2022-12-24T11:16:16.591Z,1007.33
2022-12-24T11:31:17.157Z,1007.52
2022-12-24T11:46:17.260Z,1007.52
2022-12-24T12:01:18.059Z,1007.62
2022-12-24T12:16:19.078Z,1007.83
2022-12-24T12:31:19.691Z,1007.91
2022-12-24T12:46:20.408Z,1008.01
2022-12-24T13:01:21.043Z,1008.00
2022-12-24T13:16:21.062Z,1007.92
2022-12-24T13:31:21.209Z,1008.20
2022-12-24T13:46:21.802Z,1008.50
2022-12-24T14:01:22.488Z,1008.66
2022-12-24T14:16:22.977Z,1008.86
2022-12-24T14:31:24.926Z,1008.87
2022-12-24T14:46:25.553Z,1008.99
2022-12-24T15:01:26.165Z,1009.35
2022-12-24T15:16:27.398Z,1009.44
2022-12-24T15:31:27.450Z,1009.58
2022-12-24T15:46:27.892Z,1009.88
2022-12-24T16:01:28.677Z,1010.05
2022-12-24T16:16:28.903Z,1010.23
2022-12-24T16:31:29.846Z,1010.36
2022-12-24T16:46:30.466Z,1010.42
2022-12-24T17:01:30.882Z,1010.55
2022-12-24T17:16:30.969Z,1010.66
2022-12-24T17:31:31.591Z,1010.80
2022-12-24T17:46:32.335Z,1011.04
2022-12-24T18:01:32.856Z,1010.99
2022-12-24T18:16:33.409Z,1011.26
2022-12-24T18:31:34.277Z,1011.36
2022-12-24T18:46:34.314Z,1011.62
2022-12-24T19:01:34.831Z,1011.67
2022-12-24T19:16:35.872Z,1011.75
2022-12-24T19:31:36.426Z,1011.80
2022-12-24T19:46:36.950Z,1012.05
2022-12-24T20:01:37.845Z,1012.00
2022-12-24T20:16:37.973Z,1012.08
2022-12-24T20:31:39.121Z,1012.22
2022-12-24T20:46:40.145Z,1012.30
2022-12-24T21:01:40.870Z,1012.51
2022-12-24T21:16:41.490Z,1012.47
2022-12-24T21:31:42.001Z,1012.66
2022-12-24T21:46:42.547Z,1012.86
2022-12-24T22:01:42.932Z,1013.03
2022-12-24T22:16:43.404Z,1013.29
2022-12-24T22:31:43.670Z,1013.31
2022-12-24T22:46:44.271Z,1013.61
2022-12-24T23:01:45.156Z,1013.78
2022-12-24T23:16:45.936Z,1013.85
2022-12-24T23:31:46.696Z,1013.82
2022-12-24T23:46:47.225Z,1013.77
